sensor_id;sensor_type;location;lat;lon;timestamp;P1;durP1;ratioP1;P2;durP2;ratioP2
35364;SDS011;21464;48.112;11.530;2024-03-02T00:01:17;15.40;;;13.80;;
35364;SDS011;21464;48.112;11.530;2024-03-02T00:03:44;10.05;;;9.00;;
35364;SDS011;21464;48.112;11.530;2024-03-02T00:06:10;9.20;;;8.30;;
35364;SDS011;21464;48.112;11.530;2024-03-02T00:08:36;8.93;;;8.03;;
35364;SDS011;21464;48.112;11.530;2024-03-02T00:11:03;8.40;;;7.70;;
35364;SDS011;21464;48.112;11.530;2024-03-02T00:13:29;9.48;;;8.57;;
35364;SDS011;21464;48.112;11.530;2024-03-02T00:15:59;8.95;;;8.00;;
35364;SDS011;21464;48.112;11.530;2024-03-02T00:18:26;8.57;;;7.60;;
35364;SDS011;21464;48.112;11.530;2024-03-02T00:20:56;8.93;;;8.13;;
35364;SDS011;21464;48.112;11.530;2024-03-02T00:23:23;9.40;;;8.48;;
35364;SDS011;21464;48.112;11.530;2024-03-02T00:25:51;9.05;;;8.20;;
35364;SDS011;21464;48.112;11.530;2024-03-02T00:31:02;9.40;;;8.50;;
35364;SDS011;21464;48.112;11.530;2024-03-02T00:33:30;10.40;;;9.40;;
35364;SDS011;21464;48.112;11.530;2024-03-02T00:36:03;10.13;;;9.13;;
35364;SDS011;21464;48.112;11.530;2024-03-02T00:38:30;10.67;;;9.57;;
35364;SDS011;21464;48.112;11.530;2024-03-02T00:41:03;10.32;;;8.95;;
35364;SDS011;21464;48.112;11.530;2024-03-02T00:46:19;9.90;;;8.93;;
35364;SDS011;21464;48.112;11.530;2024-03-02T00:48:56;9.68;;;8.68;;
35364;SDS011;21464;48.112;11.530;2024-03-02T00:51:23;9.32;;;8.43;;
35364;SDS011;21464;48.112;11.530;2024-03-02T00:53:51;9.25;;;8.35;;
35364;SDS011;21464;48.112;11.530;2024-03-02T00:56:18;9.37;;;8.40;;
35364;SDS011;21464;48.112;11.530;2024-03-02T00:58:44;8.80;;;8.00;;
35364;SDS011;21464;48.112;11.530;2024-03-02T01:01:11;9.67;;;8.67;;
35364;SDS011;21464;48.112;11.530;2024-03-02T01:03:37;8.82;;;8.02;;
35364;SDS011;21464;48.112;11.530;2024-03-02T01:06:04;8.63;;;7.77;;
35364;SDS011;21464;48.112;11.530;2024-03-02T01:08:30;9.40;;;8.23;;
35364;SDS011;21464;48.112;11.530;2024-03-02T01:10:57;9.07;;;8.17;;
35364;SDS011;21464;48.112;11.530;2024-03-02T01:13:23;9.25;;;8.40;;
35364;SDS011;21464;48.112;11.530;2024-03-02T01:15:50;9.32;;;8.43;;
35364;SDS011;21464;48.112;11.530;2024-03-02T01:18:16;9.10;;;8.30;;
35364;SDS011;21464;48.112;11.530;2024-03-02T01:20:42;9.57;;;8.67;;
35364;SDS011;21464;48.112;11.530;2024-03-02T01:23:09;8.53;;;7.70;;
35364;SDS011;21464;48.112;11.530;2024-03-02T01:25:35;9.50;;;8.57;;
35364;SDS011;21464;48.112;11.530;2024-03-02T01:28:02;9.70;;;8.70;;
35364;SDS011;21464;48.112;11.530;2024-03-02T01:30:28;9.43;;;8.43;;
35364;SDS011;21464;48.112;11.530;2024-03-02T01:32:54;8.70;;;7.90;;
35364;SDS011;21464;48.112;11.530;2024-03-02T01:35:20;9.17;;;8.27;;
35364;SDS011;21464;48.112;11.530;2024-03-02T01:37:47;9.50;;;8.60;;
35364;SDS011;21464;48.112;11.530;2024-03-02T01:40:13;10.17;;;8.23;;
35364;SDS011;21464;48.112;11.530;2024-03-02T01:42:39;9.17;;;8.27;;
35364;SDS011;21464;48.112;11.530;2024-03-02T01:45:06;9.07;;;8.17;;
35364;SDS011;21464;48.112;11.530;2024-03-02T01:47:33;9.20;;;8.30;;
35364;SDS011;21464;48.112;11.530;2024-03-02T01:50:00;9.30;;;8.40;;
35364;SDS011;21464;48.112;11.530;2024-03-02T01:52:27;9.60;;;8.70;;
35364;SDS011;21464;48.112;11.530;2024-03-02T01:54:53;8.60;;;7.90;;
35364;SDS011;21464;48.112;11.530;2024-03-02T01:57:19;8.77;;;7.88;;
35364;SDS011;21464;48.112;11.530;2024-03-02T01:59:46;8.85;;;8.05;;
35364;SDS011;21464;48.112;11.530;2024-03-02T02:02:16;9.63;;;8.60;;
35364;SDS011;21464;48.112;11.530;2024-03-02T02:04:43;8.57;;;7.87;;
35364;SDS011;21464;48.112;11.530;2024-03-02T02:07:09;9.20;;;8.23;;
35364;SDS011;21464;48.112;11.530;2024-03-02T02:09:36;8.52;;;7.72;;
35364;SDS011;21464;48.112;11.530;2024-03-02T02:12:02;9.00;;;8.13;;
35364;SDS011;21464;48.112;11.530;2024-03-02T02:14:30;8.57;;;7.77;;
35364;SDS011;21464;48.112;11.530;2024-03-02T02:16:56;8.73;;;7.93;;
35364;SDS011;21464;48.112;11.530;2024-03-02T02:19:23;9.73;;;8.17;;
35364;SDS011;21464;48.112;11.530;2024-03-02T02:21:49;9.63;;;8.73;;
35364;SDS011;21464;48.112;11.530;2024-03-02T02:24:15;8.13;;;7.33;;
35364;SDS011;21464;48.112;11.530;2024-03-02T02:26:41;8.93;;;8.03;;
35364;SDS011;21464;48.112;11.530;2024-03-02T02:29:08;8.60;;;7.80;;
35364;SDS011;21464;48.112;11.530;2024-03-02T02:31:37;9.32;;;8.20;;
35364;SDS011;21464;48.112;11.530;2024-03-02T02:34:04;9.30;;;8.40;;
35364;SDS011;21464;48.112;11.530;2024-03-02T02:36:31;9.05;;;8.15;;
35364;SDS011;21464;48.112;11.530;2024-03-02T02:39:01;9.95;;;8.70;;
35364;SDS011;21464;48.112;11.530;2024-03-02T02:41:32;9.18;;;8.13;;
35364;SDS011;21464;48.112;11.530;2024-03-02T02:43:59;10.37;;;8.40;;
35364;SDS011;21464;48.112;11.530;2024-03-02T02:46:25;9.57;;;8.67;;
35364;SDS011;21464;48.112;11.530;2024-03-02T02:48:51;9.07;;;7.87;;
35364;SDS011;21464;48.112;11.530;2024-03-02T02:51:19;9.50;;;8.60;;
35364;SDS011;21464;48.112;11.530;2024-03-02T02:53:45;9.23;;;8.40;;
35364;SDS011;21464;48.112;11.530;2024-03-02T02:56:11;11.35;;;8.98;;
35364;SDS011;21464;48.112;11.530;2024-03-02T02:58:39;9.07;;;8.18;;
35364;SDS011;21464;48.112;11.530;2024-03-02T03:01:06;9.87;;;8.67;;
35364;SDS011;21464;48.112;11.530;2024-03-02T03:03:33;9.70;;;8.70;;
35364;SDS011;21464;48.112;11.530;2024-03-02T03:06:00;9.77;;;8.70;;
35364;SDS011;21464;48.112;11.530;2024-03-02T03:08:26;9.88;;;8.90;;
35364;SDS011;21464;48.112;11.530;2024-03-02T03:10:52;9.50;;;8.37;;
35364;SDS011;21464;48.112;11.530;2024-03-02T03:13:18;11.33;;;9.23;;
35364;SDS011;21464;48.112;11.530;2024-03-02T03:15:45;9.88;;;8.85;;
35364;SDS011;21464;48.112;11.530;2024-03-02T03:18:11;9.57;;;8.47;;
35364;SDS011;21464;48.112;11.530;2024-03-02T03:20:37;9.63;;;8.73;;
35364;SDS011;21464;48.112;11.530;2024-03-02T03:23:03;10.67;;;9.57;;
35364;SDS011;21464;48.112;11.530;2024-03-02T03:25:30;10.90;;;9.40;;
35364;SDS011;21464;48.112;11.530;2024-03-02T03:27:56;11.97;;;9.50;;
35364;SDS011;21464;48.112;11.530;2024-03-02T03:30:23;10.10;;;9.02;;
35364;SDS011;21464;48.112;11.530;2024-03-02T03:32:49;11.70;;;10.50;;
35364;SDS011;21464;48.112;11.530;2024-03-02T03:35:16;12.17;;;9.93;;
35364;SDS011;21464;48.112;11.530;2024-03-02T03:37:42;11.10;;;9.93;;
35364;SDS011;21464;48.112;11.530;2024-03-02T03:40:08;12.85;;;11.13;;
35364;SDS011;21464;48.112;11.530;2024-03-02T03:42:39;12.40;;;10.57;;
35364;SDS011;21464;48.112;11.530;2024-03-02T03:45:06;12.02;;;10.70;;
35364;SDS011;21464;48.112;11.530;2024-03-02T03:47:32;12.57;;;11.27;;
35364;SDS011;21464;48.112;11.530;2024-03-02T03:49:59;13.37;;;10.80;;
35364;SDS011;21464;48.112;11.530;2024-03-02T03:52:25;13.32;;;10.82;;
35364;SDS011;21464;48.112;11.530;2024-03-02T03:54:51;12.30;;;10.88;;
35364;SDS011;21464;48.112;11.530;2024-03-02T03:57:18;13.27;;;11.87;;
35364;SDS011;21464;48.112;11.530;2024-03-02T03:59:44;12.93;;;11.02;;
35364;SDS011;21464;48.112;11.530;2024-03-02T04:02:11;12.23;;;10.95;;
35364;SDS011;21464;48.112;11.530;2024-03-02T04:04:38;11.57;;;10.37;;
35364;SDS011;21464;48.112;11.530;2024-03-02T04:07:05;12.37;;;10.60;;
35364;SDS011;21464;48.112;11.530;2024-03-02T04:09:31;13.25;;;10.73;;
35364;SDS011;21464;48.112;11.530;2024-03-02T04:11:57;12.97;;;11.33;;
35364;SDS011;21464;48.112;11.530;2024-03-02T04:14:23;11.83;;;10.63;;
35364;SDS011;21464;48.112;11.530;2024-03-02T04:16:49;14.23;;;10.90;;
35364;SDS011;21464;48.112;11.530;2024-03-02T04:19:16;12.27;;;10.30;;
35364;SDS011;21464;48.112;11.530;2024-03-02T04:21:42;12.05;;;10.75;;
35364;SDS011;21464;48.112;11.530;2024-03-02T04:24:08;11.77;;;10.55;;
35364;SDS011;21464;48.112;11.530;2024-03-02T04:26:34;12.07;;;10.80;;
35364;SDS011;21464;48.112;11.530;2024-03-02T04:29:01;12.40;;;11.13;;
35364;SDS011;21464;48.112;11.530;2024-03-02T04:31:27;11.10;;;10.00;;
35364;SDS011;21464;48.112;11.530;2024-03-02T04:33:54;10.83;;;9.73;;
35364;SDS011;21464;48.112;11.530;2024-03-02T04:36:20;11.50;;;10.33;;
35364;SDS011;21464;48.112;11.530;2024-03-02T04:38:47;11.53;;;10.43;;
35364;SDS011;21464;48.112;11.530;2024-03-02T04:41:14;12.70;;;11.00;;
35364;SDS011;21464;48.112;11.530;2024-03-02T04:43:40;13.07;;;10.80;;
35364;SDS011;21464;48.112;11.530;2024-03-02T04:46:06;11.97;;;10.77;;
35364;SDS011;21464;48.112;11.530;2024-03-02T04:48:33;12.10;;;10.80;;
35364;SDS011;21464;48.112;11.530;2024-03-02T04:51:00;12.97;;;11.70;;
35364;SDS011;21464;48.112;11.530;2024-03-02T04:53:26;12.00;;;10.73;;
35364;SDS011;21464;48.112;11.530;2024-03-02T04:55:52;12.53;;;10.90;;
35364;SDS011;21464;48.112;11.530;2024-03-02T04:58:22;12.77;;;10.70;;
35364;SDS011;21464;48.112;11.530;2024-03-02T05:00:48;12.80;;;11.10;;
35364;SDS011;21464;48.112;11.530;2024-03-02T05:03:14;13.00;;;11.53;;
35364;SDS011;21464;48.112;11.530;2024-03-02T05:05:40;13.13;;;11.80;;
35364;SDS011;21464;48.112;11.530;2024-03-02T05:08:07;13.93;;;12.27;;
35364;SDS011;21464;48.112;11.530;2024-03-02T05:10:33;14.70;;;12.30;;
35364;SDS011;21464;48.112;11.530;2024-03-02T05:12:59;14.73;;;12.90;;
35364;SDS011;21464;48.112;11.530;2024-03-02T05:15:25;15.63;;;12.70;;
35364;SDS011;21464;48.112;11.530;2024-03-02T05:17:52;15.10;;;13.40;;
35364;SDS011;21464;48.112;11.530;2024-03-02T05:20:19;15.77;;;12.77;;
35364;SDS011;21464;48.112;11.530;2024-03-02T05:22:45;14.93;;;12.70;;
35364;SDS011;21464;48.112;11.530;2024-03-02T05:25:13;15.60;;;12.85;;
35364;SDS011;21464;48.112;11.530;2024-03-02T05:27:39;13.95;;;12.27;;
35364;SDS011;21464;48.112;11.530;2024-03-02T05:30:05;12.80;;;11.50;;
35364;SDS011;21464;48.112;11.530;2024-03-02T05:32:33;12.67;;;11.37;;
35364;SDS011;21464;48.112;11.530;2024-03-02T05:34:59;13.70;;;12.30;;
35364;SDS011;21464;48.112;11.530;2024-03-02T05:37:25;13.70;;;11.90;;
35364;SDS011;21464;48.112;11.530;2024-03-02T05:39:52;13.60;;;12.17;;
35364;SDS011;21464;48.112;11.530;2024-03-02T05:42:18;15.27;;;13.33;;
35364;SDS011;21464;48.112;11.530;2024-03-02T05:44:45;14.27;;;12.77;;
35364;SDS011;21464;48.112;11.530;2024-03-02T05:47:11;15.03;;;13.30;;
35364;SDS011;21464;48.112;11.530;2024-03-02T05:49:38;15.50;;;12.87;;
35364;SDS011;21464;48.112;11.530;2024-03-02T05:52:04;14.83;;;13.23;;
35364;SDS011;21464;48.112;11.530;2024-03-02T05:54:31;14.83;;;13.23;;
35364;SDS011;21464;48.112;11.530;2024-03-02T05:56:57;15.10;;;13.43;;
35364;SDS011;21464;48.112;11.530;2024-03-02T05:59:42;14.77;;;12.87;;
35364;SDS011;21464;48.112;11.530;2024-03-02T06:02:09;18.17;;;14.40;;
35364;SDS011;21464;48.112;11.530;2024-03-02T06:04:35;16.63;;;14.33;;
35364;SDS011;21464;48.112;11.530;2024-03-02T06:07:02;18.33;;;14.83;;
35364;SDS011;21464;48.112;11.530;2024-03-02T06:09:29;19.30;;;15.27;;
35364;SDS011;21464;48.112;11.530;2024-03-02T06:11:55;19.33;;;15.43;;
35364;SDS011;21464;48.112;11.530;2024-03-02T06:14:21;17.83;;;14.90;;
35364;SDS011;21464;48.112;11.530;2024-03-02T06:16:47;16.50;;;14.23;;
35364;SDS011;21464;48.112;11.530;2024-03-02T06:19:14;17.93;;;13.90;;
35364;SDS011;21464;48.112;11.530;2024-03-02T06:21:40;16.83;;;13.70;;
35364;SDS011;21464;48.112;11.530;2024-03-02T06:24:06;17.33;;;14.00;;
35364;SDS011;21464;48.112;11.530;2024-03-02T06:26:32;20.47;;;16.63;;
35364;SDS011;21464;48.112;11.530;2024-03-02T06:28:59;18.00;;;15.77;;
35364;SDS011;21464;48.112;11.530;2024-03-02T06:31:25;17.07;;;14.47;;
35364;SDS011;21464;48.112;11.530;2024-03-02T06:33:51;17.90;;;14.15;;
35364;SDS011;21464;48.112;11.530;2024-03-02T06:36:17;19.63;;;14.33;;
35364;SDS011;21464;48.112;11.530;2024-03-02T06:38:44;22.37;;;17.43;;
35364;SDS011;21464;48.112;11.530;2024-03-02T06:41:10;17.60;;;14.50;;
35364;SDS011;21464;48.112;11.530;2024-03-02T06:43:36;18.07;;;14.80;;
35364;SDS011;21464;48.112;11.530;2024-03-02T06:46:04;20.03;;;14.83;;
35364;SDS011;21464;48.112;11.530;2024-03-02T06:48:30;17.17;;;13.97;;
35364;SDS011;21464;48.112;11.530;2024-03-02T06:50:57;17.98;;;14.32;;
35364;SDS011;21464;48.112;11.530;2024-03-02T06:53:24;16.30;;;14.32;;
35364;SDS011;21464;48.112;11.530;2024-03-02T06:55:50;17.20;;;14.77;;
35364;SDS011;21464;48.112;11.530;2024-03-02T06:58:16;21.33;;;15.70;;
35364;SDS011;21464;48.112;11.530;2024-03-02T07:00:42;16.53;;;13.67;;
35364;SDS011;21464;48.112;11.530;2024-03-02T07:03:10;16.63;;;14.77;;
35364;SDS011;21464;48.112;11.530;2024-03-02T07:05:36;17.27;;;14.33;;
35364;SDS011;21464;48.112;11.530;2024-03-02T07:08:02;20.00;;;16.13;;
35364;SDS011;21464;48.112;11.530;2024-03-02T07:10:31;20.90;;;15.47;;
35364;SDS011;21464;48.112;11.530;2024-03-02T07:12:57;17.43;;;14.27;;
35364;SDS011;21464;48.112;11.530;2024-03-02T07:15:23;19.03;;;14.50;;
35364;SDS011;21464;48.112;11.530;2024-03-02T07:18:03;19.07;;;14.60;;
35364;SDS011;21464;48.112;11.530;2024-03-02T07:20:30;17.07;;;15.07;;
35364;SDS011;21464;48.112;11.530;2024-03-02T07:22:56;16.27;;;13.93;;
35364;SDS011;21464;48.112;11.530;2024-03-02T07:25:23;20.00;;;15.97;;
35364;SDS011;21464;48.112;11.530;2024-03-02T07:27:49;19.00;;;15.30;;
35364;SDS011;21464;48.112;11.530;2024-03-02T07:30:15;17.27;;;15.07;;
35364;SDS011;21464;48.112;11.530;2024-03-02T07:32:44;19.00;;;14.97;;
35364;SDS011;21464;48.112;11.530;2024-03-02T07:35:12;20.23;;;15.77;;
35364;SDS011;21464;48.112;11.530;2024-03-02T07:37:39;21.33;;;15.57;;
35364;SDS011;21464;48.112;11.530;2024-03-02T07:40:07;17.37;;;15.23;;
35364;SDS011;21464;48.112;11.530;2024-03-02T07:42:40;21.47;;;15.93;;
35364;SDS011;21464;48.112;11.530;2024-03-02T07:45:07;25.17;;;19.43;;
35364;SDS011;21464;48.112;11.530;2024-03-02T07:47:34;24.13;;;18.90;;
35364;SDS011;21464;48.112;11.530;2024-03-02T07:50:00;24.10;;;18.23;;
35364;SDS011;21464;48.112;11.530;2024-03-02T07:52:27;21.03;;;17.23;;
35364;SDS011;21464;48.112;11.530;2024-03-02T07:54:53;20.80;;;15.93;;
35364;SDS011;21464;48.112;11.530;2024-03-02T07:57:20;23.70;;;17.03;;
35364;SDS011;21464;48.112;11.530;2024-03-02T07:59:46;21.17;;;16.20;;
35364;SDS011;21464;48.112;11.530;2024-03-02T08:02:13;19.13;;;15.63;;
35364;SDS011;21464;48.112;11.530;2024-03-02T08:04:39;18.13;;;14.17;;
35364;SDS011;21464;48.112;11.530;2024-03-02T08:07:05;16.47;;;13.53;;
35364;SDS011;21464;48.112;11.530;2024-03-02T08:09:32;18.40;;;13.90;;
35364;SDS011;21464;48.112;11.530;2024-03-02T08:11:58;17.23;;;13.10;;
35364;SDS011;21464;48.112;11.530;2024-03-02T08:14:24;15.90;;;13.10;;
35364;SDS011;21464;48.112;11.530;2024-03-02T08:16:50;17.30;;;13.43;;
35364;SDS011;21464;48.112;11.530;2024-03-02T08:19:17;16.10;;;12.33;;
35364;SDS011;21464;48.112;11.530;2024-03-02T08:21:43;18.53;;;12.97;;
35364;SDS011;21464;48.112;11.530;2024-03-02T08:24:10;18.50;;;13.37;;
35364;SDS011;21464;48.112;11.530;2024-03-02T08:26:36;17.40;;;14.60;;
35364;SDS011;21464;48.112;11.530;2024-03-02T08:29:02;15.90;;;12.87;;
35364;SDS011;21464;48.112;11.530;2024-03-02T08:31:29;17.23;;;12.93;;
35364;SDS011;21464;48.112;11.530;2024-03-02T08:33:56;16.55;;;12.65;;
35364;SDS011;21464;48.112;11.530;2024-03-02T08:36:26;15.73;;;12.43;;
35364;SDS011;21464;48.112;11.530;2024-03-02T08:38:52;14.93;;;11.67;;
35364;SDS011;21464;48.112;11.530;2024-03-02T08:41:18;14.27;;;11.70;;
35364;SDS011;21464;48.112;11.530;2024-03-02T08:43:45;14.17;;;11.23;;
35364;SDS011;21464;48.112;11.530;2024-03-02T08:46:11;13.53;;;11.43;;
35364;SDS011;21464;48.112;11.530;2024-03-02T08:48:37;15.67;;;11.77;;
35364;SDS011;21464;48.112;11.530;2024-03-02T08:51:04;15.40;;;12.48;;
35364;SDS011;21464;48.112;11.530;2024-03-02T08:53:33;16.87;;;13.27;;
35364;SDS011;21464;48.112;11.530;2024-03-02T08:55:59;14.50;;;12.53;;
35364;SDS011;21464;48.112;11.530;2024-03-02T08:58:26;15.25;;;13.30;;
35364;SDS011;21464;48.112;11.530;2024-03-02T09:00:52;23.10;;;17.00;;
35364;SDS011;21464;48.112;11.530;2024-03-02T09:03:18;17.67;;;15.23;;
35364;SDS011;21464;48.112;11.530;2024-03-02T09:05:45;14.23;;;12.35;;
35364;SDS011;21464;48.112;11.530;2024-03-02T09:08:12;19.58;;;12.60;;
35364;SDS011;21464;48.112;11.530;2024-03-02T09:10:38;14.80;;;12.03;;
35364;SDS011;21464;48.112;11.530;2024-03-02T09:13:05;14.23;;;11.40;;
35364;SDS011;21464;48.112;11.530;2024-03-02T09:15:31;12.50;;;10.80;;
35364;SDS011;21464;48.112;11.530;2024-03-02T09:17:58;10.93;;;9.83;;
35364;SDS011;21464;48.112;11.530;2024-03-02T09:20:24;13.97;;;10.77;;
35364;SDS011;21464;48.112;11.530;2024-03-02T09:22:50;11.73;;;10.17;;
35364;SDS011;21464;48.112;11.530;2024-03-02T09:25:16;12.25;;;11.05;;
35364;SDS011;21464;48.112;11.530;2024-03-02T09:27:43;13.30;;;11.50;;
35364;SDS011;21464;48.112;11.530;2024-03-02T09:30:09;14.93;;;12.40;;
35364;SDS011;21464;48.112;11.530;2024-03-02T09:32:36;13.32;;;11.93;;
35364;SDS011;21464;48.112;11.530;2024-03-02T09:35:03;15.85;;;13.65;;
35364;SDS011;21464;48.112;11.530;2024-03-02T09:37:30;14.07;;;12.57;;
35364;SDS011;21464;48.112;11.530;2024-03-02T09:39:56;16.52;;;14.02;;
35364;SDS011;21464;48.112;11.530;2024-03-02T09:42:22;14.25;;;12.75;;
35364;SDS011;21464;48.112;11.530;2024-03-02T09:44:49;16.03;;;13.00;;
35364;SDS011;21464;48.112;11.530;2024-03-02T09:47:15;17.23;;;14.40;;
35364;SDS011;21464;48.112;11.530;2024-03-02T09:49:41;16.33;;;12.87;;
35364;SDS011;21464;48.112;11.530;2024-03-02T09:52:07;19.60;;;15.03;;
35364;SDS011;21464;48.112;11.530;2024-03-02T09:54:34;12.57;;;11.38;;
35364;SDS011;21464;48.112;11.530;2024-03-02T09:57:00;12.32;;;11.02;;
35364;SDS011;21464;48.112;11.530;2024-03-02T09:59:28;12.10;;;10.77;;
35364;SDS011;21464;48.112;11.530;2024-03-02T10:01:59;23.95;;;18.48;;
35364;SDS011;21464;48.112;11.530;2024-03-02T10:04:26;12.95;;;10.18;;
35364;SDS011;21464;48.112;11.530;2024-03-02T10:09:39;9.77;;;8.65;;
35364;SDS011;21464;48.112;11.530;2024-03-02T10:12:06;10.77;;;9.40;;
35364;SDS011;21464;48.112;11.530;2024-03-02T10:14:34;12.05;;;9.23;;
35364;SDS011;21464;48.112;11.530;2024-03-02T10:17:04;14.68;;;11.68;;
35364;SDS011;21464;48.112;11.530;2024-03-02T10:19:33;9.73;;;8.57;;
35364;SDS011;21464;48.112;11.530;2024-03-02T10:22:01;13.43;;;9.93;;
35364;SDS011;21464;48.112;11.530;2024-03-02T10:24:34;15.75;;;12.02;;
35364;SDS011;21464;48.112;11.530;2024-03-02T10:27:10;9.70;;;8.40;;
35364;SDS011;21464;48.112;11.530;2024-03-02T10:29:41;8.60;;;7.50;;
35364;SDS011;21464;48.112;11.530;2024-03-02T10:32:10;7.40;;;6.40;;
35364;SDS011;21464;48.112;11.530;2024-03-02T10:34:41;7.43;;;6.72;;
35364;SDS011;21464;48.112;11.530;2024-03-02T10:37:08;7.97;;;7.15;;
35364;SDS011;21464;48.112;11.530;2024-03-02T10:39:34;7.55;;;6.78;;
35364;SDS011;21464;48.112;11.530;2024-03-02T10:42:05;12.43;;;9.27;;
35364;SDS011;21464;48.112;11.530;2024-03-02T10:44:32;7.05;;;5.95;;
35364;SDS011;21464;48.112;11.530;2024-03-02T10:46:59;5.68;;;5.18;;
35364;SDS011;21464;48.112;11.530;2024-03-02T10:49:28;6.78;;;5.50;;
35364;SDS011;21464;48.112;11.530;2024-03-02T10:51:55;6.43;;;5.68;;
35364;SDS011;21464;48.112;11.530;2024-03-02T10:54:21;7.22;;;6.20;;
35364;SDS011;21464;48.112;11.530;2024-03-02T10:56:52;7.20;;;5.88;;
35364;SDS011;21464;48.112;11.530;2024-03-02T11:01:57;7.65;;;6.57;;
35364;SDS011;21464;48.112;11.530;2024-03-02T11:04:27;10.07;;;7.20;;
35364;SDS011;21464;48.112;11.530;2024-03-02T11:07:05;11.73;;;9.07;;
35364;SDS011;21464;48.112;11.530;2024-03-02T11:09:33;8.68;;;6.47;;
35364;SDS011;21464;48.112;11.530;2024-03-02T11:12:06;9.27;;;7.88;;
35364;SDS011;21464;48.112;11.530;2024-03-02T11:14:42;8.45;;;6.97;;
35364;SDS011;21464;48.112;11.530;2024-03-02T11:17:11;8.80;;;6.80;;
35364;SDS011;21464;48.112;11.530;2024-03-02T11:19:41;7.78;;;6.60;;
35364;SDS011;21464;48.112;11.530;2024-03-02T11:22:08;10.70;;;7.20;;
35364;SDS011;21464;48.112;11.530;2024-03-02T11:24:35;8.75;;;6.85;;
35364;SDS011;21464;48.112;11.530;2024-03-02T11:27:02;9.20;;;7.93;;
35364;SDS011;21464;48.112;11.530;2024-03-02T11:34:51;11.50;;;9.02;;
35364;SDS011;21464;48.112;11.530;2024-03-02T11:37:18;11.07;;;9.50;;
35364;SDS011;21464;48.112;11.530;2024-03-02T11:39:49;13.65;;;9.68;;
35364;SDS011;21464;48.112;11.530;2024-03-02T11:42:16;15.63;;;10.98;;
35364;SDS011;21464;48.112;11.530;2024-03-02T11:44:43;16.67;;;11.38;;
35364;SDS011;21464;48.112;11.530;2024-03-02T11:47:12;14.93;;;10.95;;
35364;SDS011;21464;48.112;11.530;2024-03-02T11:49:48;15.95;;;11.23;;
35364;SDS011;21464;48.112;11.530;2024-03-02T11:52:16;16.35;;;11.25;;
35364;SDS011;21464;48.112;11.530;2024-03-02T11:54:45;13.13;;;11.07;;
35364;SDS011;21464;48.112;11.530;2024-03-02T11:57:17;13.43;;;10.48;;
35364;SDS011;21464;48.112;11.530;2024-03-02T11:59:45;13.60;;;10.15;;
35364;SDS011;21464;48.112;11.530;2024-03-02T12:02:16;14.88;;;10.65;;
35364;SDS011;21464;48.112;11.530;2024-03-02T12:04:44;12.40;;;9.23;;
35364;SDS011;21464;48.112;11.530;2024-03-02T12:07:11;12.13;;;8.90;;
35364;SDS011;21464;48.112;11.530;2024-03-02T12:09:38;12.05;;;8.73;;
35364;SDS011;21464;48.112;11.530;2024-03-02T12:12:05;11.07;;;8.60;;
35364;SDS011;21464;48.112;11.530;2024-03-02T12:14:36;13.77;;;8.82;;
35364;SDS011;21464;48.112;11.530;2024-03-02T12:17:03;10.32;;;8.95;;
35364;SDS011;21464;48.112;11.530;2024-03-02T12:19:31;9.60;;;7.70;;
35364;SDS011;21464;48.112;11.530;2024-03-02T12:21:58;9.50;;;7.60;;
35364;SDS011;21464;48.112;11.530;2024-03-02T12:24:28;10.20;;;7.30;;
35364;SDS011;21464;48.112;11.530;2024-03-02T12:26:55;8.48;;;7.35;;
35364;SDS011;21464;48.112;11.530;2024-03-02T12:29:22;8.50;;;7.40;;
35364;SDS011;21464;48.112;11.530;2024-03-02T12:31:50;10.30;;;7.60;;
35364;SDS011;21464;48.112;11.530;2024-03-02T12:34:18;11.77;;;7.88;;
35364;SDS011;21464;48.112;11.530;2024-03-02T12:36:45;10.30;;;8.48;;
35364;SDS011;21464;48.112;11.530;2024-03-02T12:39:16;11.65;;;8.80;;
35364;SDS011;21464;48.112;11.530;2024-03-02T12:41:42;13.20;;;9.18;;
35364;SDS011;21464;48.112;11.530;2024-03-02T12:44:09;11.52;;;8.98;;
35364;SDS011;21464;48.112;11.530;2024-03-02T12:46:35;11.43;;;9.40;;
35364;SDS011;21464;48.112;11.530;2024-03-02T12:49:07;11.38;;;9.07;;
35364;SDS011;21464;48.112;11.530;2024-03-02T12:51:35;12.70;;;9.77;;
35364;SDS011;21464;48.112;11.530;2024-03-02T12:54:02;10.90;;;8.60;;
35364;SDS011;21464;48.112;11.530;2024-03-02T12:56:29;11.35;;;9.25;;
35364;SDS011;21464;48.112;11.530;2024-03-02T12:58:56;12.30;;;9.07;;
35364;SDS011;21464;48.112;11.530;2024-03-02T13:01:22;14.68;;;10.30;;
35364;SDS011;21464;48.112;11.530;2024-03-02T13:03:49;15.13;;;11.35;;
35364;SDS011;21464;48.112;11.530;2024-03-02T13:06:17;13.32;;;10.65;;
35364;SDS011;21464;48.112;11.530;2024-03-02T13:08:44;12.65;;;11.00;;
35364;SDS011;21464;48.112;11.530;2024-03-02T13:11:11;10.25;;;8.30;;
35364;SDS011;21464;48.112;11.530;2024-03-02T13:13:38;12.07;;;7.18;;
35364;SDS011;21464;48.112;11.530;2024-03-02T13:16:11;8.40;;;7.30;;
35364;SDS011;21464;48.112;11.530;2024-03-02T13:18:38;8.10;;;7.00;;
35364;SDS011;21464;48.112;11.530;2024-03-02T13:21:06;3.67;;;3.33;;
35364;SDS011;21464;48.112;11.530;2024-03-02T13:23:32;1.90;;;1.80;;
35364;SDS011;21464;48.112;11.530;2024-03-02T13:25:59;3.88;;;2.90;;
35364;SDS011;21464;48.112;11.530;2024-03-02T13:28:25;4.93;;;2.97;;
35364;SDS011;21464;48.112;11.530;2024-03-02T13:30:51;5.43;;;2.55;;
35364;SDS011;21464;48.112;11.530;2024-03-02T13:33:18;3.90;;;2.20;;
35364;SDS011;21464;48.112;11.530;2024-03-02T13:35:50;2.55;;;2.35;;
35364;SDS011;21464;48.112;11.530;2024-03-02T13:38:20;2.78;;;2.20;;
35364;SDS011;21464;48.112;11.530;2024-03-02T13:40:46;3.22;;;2.45;;
35364;SDS011;21464;48.112;11.530;2024-03-02T13:43:14;3.53;;;2.80;;
35364;SDS011;21464;48.112;11.530;2024-03-02T13:45:40;2.53;;;2.33;;
35364;SDS011;21464;48.112;11.530;2024-03-02T13:48:06;3.05;;;2.70;;
35364;SDS011;21464;48.112;11.530;2024-03-02T13:50:33;3.63;;;2.58;;
35364;SDS011;21464;48.112;11.530;2024-03-02T13:52:59;3.00;;;2.00;;
35364;SDS011;21464;48.112;11.530;2024-03-02T13:55:26;2.85;;;2.50;;
35364;SDS011;21464;48.112;11.530;2024-03-02T13:57:52;2.97;;;2.10;;
35364;SDS011;21464;48.112;11.530;2024-03-02T14:00:18;3.25;;;2.10;;
35364;SDS011;21464;48.112;11.530;2024-03-02T14:02:45;3.10;;;2.00;;
35364;SDS011;21464;48.112;11.530;2024-03-02T14:05:11;2.45;;;2.15;;
35364;SDS011;21464;48.112;11.530;2024-03-02T14:07:39;2.70;;;2.25;;
35364;SDS011;21464;48.112;11.530;2024-03-02T14:10:07;2.42;;;2.22;;
35364;SDS011;21464;48.112;11.530;2024-03-02T14:12:33;2.33;;;2.13;;
35364;SDS011;21464;48.112;11.530;2024-03-02T14:15:00;2.35;;;2.20;;
35364;SDS011;21464;48.112;11.530;2024-03-02T14:17:30;2.40;;;2.20;;
35364;SDS011;21464;48.112;11.530;2024-03-02T14:19:59;3.38;;;2.35;;
35364;SDS011;21464;48.112;11.530;2024-03-02T14:22:25;2.55;;;2.28;;
35364;SDS011;21464;48.112;11.530;2024-03-02T14:24:51;2.22;;;2.00;;
35364;SDS011;21464;48.112;11.530;2024-03-02T14:27:18;2.38;;;2.17;;
35364;SDS011;21464;48.112;11.530;2024-03-02T14:29:44;3.03;;;2.28;;
35364;SDS011;21464;48.112;11.530;2024-03-02T14:32:11;1.83;;;1.73;;
35364;SDS011;21464;48.112;11.530;2024-03-02T14:34:37;2.10;;;2.00;;
35364;SDS011;21464;48.112;11.530;2024-03-02T14:37:04;3.10;;;2.35;;